Página principal
METAR-TAF:

METAR-TAF

Aeroportos :

Aeroporto Internacional de Xi'an Xianyang

Xian, China

latitude: 34-26N, longitude: 108-45E, altura: 479 m

Observação actual do tempo

O boletim foi feito há 36 minutos, às 21:00 UTC
Vento calmo
Temperatura -12°C
Humidade 85%
Pressão 1033 hPa
Visibilidade: 5000 m
neblina

METAR: ZLXY 122100Z 00000MPS 5000 BR NSC M12/M14 Q1033 NOSIG

Hora: 05:36 (21:36 UTC)

Previsão

O boletim foi feito há 6 horas e 33 minutos, às 15:03 UTC
Previsão válida de 12 às 18 UTC a 13 às 18 UTC
Vento 6 kt de oeste
Visibilidade: 4000 m
bruma

TAF: ZLXY 121503Z 1218/1318 26003MPS 4000 HZ NSC TX02/1307Z TNM13/21Z

Observações e previsões do tempo de mais de 4000 aeroportos (mensagens METAR e TAF).

As estações disponíveis são os pontos amarelos e vermelhos sobre o mapa.

Mova o rato sobre o mapa para ver o nome da estação.

Depois clique no ponto para visualizar as observações e previsões meteorológicas.

Para alterar o mapa : clique nos botões verdes com uma cruz preta para aumentar o zoom; no botão verde com uma pitada de zoom; ou nas setas verdes para mapas adjacentes.


METAR-TAF: